sensor_id;sensor_type;location;lat;lon;timestamp;P1;durP1;ratioP1;P2;durP2;ratioP2
56102;SDS011;41970;48.774;9.280;2023-02-28T00:01:09;6.03;;;2.25;;
56102;SDS011;41970;48.774;9.280;2023-02-28T00:03:36;2.70;;;2.30;;
56102;SDS011;41970;48.774;9.280;2023-02-28T00:06:05;2.53;;;2.33;;
56102;SDS011;41970;48.774;9.280;2023-02-28T00:08:31;3.00;;;2.70;;
56102;SDS011;41970;48.774;9.280;2023-02-28T00:11:04;2.57;;;2.03;;
56102;SDS011;41970;48.774;9.280;2023-02-28T00:13:31;3.65;;;2.38;;
56102;SDS011;41970;48.774;9.280;2023-02-28T00:16:04;2.10;;;1.90;;
56102;SDS011;41970;48.774;9.280;2023-02-28T00:18:33;2.75;;;2.03;;
56102;SDS011;41970;48.774;9.280;2023-02-28T00:20:59;3.57;;;2.37;;
56102;SDS011;41970;48.774;9.280;2023-02-28T00:23:25;2.93;;;2.30;;
56102;SDS011;41970;48.774;9.280;2023-02-28T00:25:51;2.95;;;2.25;;
56102;SDS011;41970;48.774;9.280;2023-02-28T00:28:18;3.97;;;2.50;;
56102;SDS011;41970;48.774;9.280;2023-02-28T00:30:43;3.80;;;2.87;;
56102;SDS011;41970;48.774;9.280;2023-02-28T00:33:09;2.60;;;2.07;;
56102;SDS011;41970;48.774;9.280;2023-02-28T00:35:38;2.80;;;2.28;;
56102;SDS011;41970;48.774;9.280;2023-02-28T00:38:04;2.67;;;2.00;;
56102;SDS011;41970;48.774;9.280;2023-02-28T00:40:30;3.47;;;2.10;;
56102;SDS011;41970;48.774;9.280;2023-02-28T00:42:56;2.67;;;2.40;;
56102;SDS011;41970;48.774;9.280;2023-02-28T00:45:22;2.33;;;2.13;;
56102;SDS011;41970;48.774;9.280;2023-02-28T00:47:48;2.80;;;2.37;;
56102;SDS011;41970;48.774;9.280;2023-02-28T00:50:18;2.83;;;2.47;;
56102;SDS011;41970;48.774;9.280;2023-02-28T00:52:45;4.10;;;2.53;;
56102;SDS011;41970;48.774;9.280;2023-02-28T00:55:11;2.85;;;2.63;;
56102;SDS011;41970;48.774;9.280;2023-02-28T00:57:37;5.73;;;2.90;;
56102;SDS011;41970;48.774;9.280;2023-02-28T01:00:03;2.27;;;2.07;;
56102;SDS011;41970;48.774;9.280;2023-02-28T01:02:30;3.80;;;2.72;;
56102;SDS011;41970;48.774;9.280;2023-02-28T01:04:56;3.13;;;2.47;;
56102;SDS011;41970;48.774;9.280;2023-02-28T01:07:22;3.90;;;2.87;;
56102;SDS011;41970;48.774;9.280;2023-02-28T01:09:48;3.22;;;2.70;;
56102;SDS011;41970;48.774;9.280;2023-02-28T01:12:15;5.95;;;2.72;;
56102;SDS011;41970;48.774;9.280;2023-02-28T01:14:40;4.15;;;2.75;;
56102;SDS011;41970;48.774;9.280;2023-02-28T01:17:07;2.88;;;2.58;;
56102;SDS011;41970;48.774;9.280;2023-02-28T01:19:33;2.90;;;2.60;;
56102;SDS011;41970;48.774;9.280;2023-02-28T01:22:03;2.20;;;2.00;;
56102;SDS011;41970;48.774;9.280;2023-02-28T01:24:29;4.50;;;2.80;;
56102;SDS011;41970;48.774;9.280;2023-02-28T01:26:55;3.15;;;2.47;;
56102;SDS011;41970;48.774;9.280;2023-02-28T01:29:21;4.57;;;2.33;;
56102;SDS011;41970;48.774;9.280;2023-02-28T01:31:47;2.60;;;2.40;;
56102;SDS011;41970;48.774;9.280;2023-02-28T01:34:13;3.67;;;3.10;;
56102;SDS011;41970;48.774;9.280;2023-02-28T01:36:39;3.63;;;2.73;;
56102;SDS011;41970;48.774;9.280;2023-02-28T01:39:05;5.30;;;2.63;;
56102;SDS011;41970;48.774;9.280;2023-02-28T01:41:32;4.90;;;2.50;;
56102;SDS011;41970;48.774;9.280;2023-02-28T01:44:03;2.72;;;2.30;;
56102;SDS011;41970;48.774;9.280;2023-02-28T01:46:33;5.60;;;3.05;;
56102;SDS011;41970;48.774;9.280;2023-02-28T01:49:01;2.95;;;2.30;;
56102;SDS011;41970;48.774;9.280;2023-02-28T01:53:59;2.97;;;2.67;;
56102;SDS011;41970;48.774;9.280;2023-02-28T01:56:39;3.47;;;3.17;;
56102;SDS011;41970;48.774;9.280;2023-02-28T01:59:08;2.80;;;2.60;;
56102;SDS011;41970;48.774;9.280;2023-02-28T02:01:35;3.25;;;2.95;;
56102;SDS011;41970;48.774;9.280;2023-02-28T02:04:01;3.80;;;3.10;;
56102;SDS011;41970;48.774;9.280;2023-02-28T02:06:38;7.03;;;3.38;;
56102;SDS011;41970;48.774;9.280;2023-02-28T02:09:07;2.72;;;2.10;;
56102;SDS011;41970;48.774;9.280;2023-02-28T02:11:33;3.75;;;2.83;;
56102;SDS011;41970;48.774;9.280;2023-02-28T02:14:09;6.82;;;3.08;;
56102;SDS011;41970;48.774;9.280;2023-02-28T02:35:56;4.60;;;3.05;;
56102;SDS011;41970;48.774;9.280;2023-02-28T02:43:35;4.05;;;3.28;;
56102;SDS011;41970;48.774;9.280;2023-02-28T02:46:22;3.40;;;3.10;;
56102;SDS011;41970;48.774;9.280;2023-02-28T02:48:54;4.00;;;3.00;;
56102;SDS011;41970;48.774;9.280;2023-02-28T02:51:23;4.07;;;3.40;;
56102;SDS011;41970;48.774;9.280;2023-02-28T02:53:51;2.83;;;2.55;;
56102;SDS011;41970;48.774;9.280;2023-02-28T02:56:23;3.88;;;3.03;;
56102;SDS011;41970;48.774;9.280;2023-02-28T02:58:52;4.00;;;3.35;;
56102;SDS011;41970;48.774;9.280;2023-02-28T03:01:21;5.72;;;3.83;;
56102;SDS011;41970;48.774;9.280;2023-02-28T03:04:00;4.32;;;3.30;;
56102;SDS011;41970;48.774;9.280;2023-02-28T03:06:35;4.68;;;3.00;;
56102;SDS011;41970;48.774;9.280;2023-02-28T03:09:01;4.50;;;3.73;;
56102;SDS011;41970;48.774;9.280;2023-02-28T03:11:27;4.82;;;4.00;;
56102;SDS011;41970;48.774;9.280;2023-02-28T03:16:34;3.92;;;3.10;;
56102;SDS011;41970;48.774;9.280;2023-02-28T03:19:23;4.63;;;3.83;;
56102;SDS011;41970;48.774;9.280;2023-02-28T03:22:19;4.93;;;3.22;;
56102;SDS011;41970;48.774;9.280;2023-02-28T03:25:51;4.78;;;3.70;;
56102;SDS011;41970;48.774;9.280;2023-02-28T03:30:38;5.53;;;3.75;;
56102;SDS011;41970;48.774;9.280;2023-02-28T03:33:23;4.75;;;3.88;;
56102;SDS011;41970;48.774;9.280;2023-02-28T03:36:02;4.70;;;4.13;;
56102;SDS011;41970;48.774;9.280;2023-02-28T03:38:34;3.70;;;3.33;;
56102;SDS011;41970;48.774;9.280;2023-02-28T03:41:10;6.47;;;3.60;;
56102;SDS011;41970;48.774;9.280;2023-02-28T03:43:41;4.75;;;3.88;;
56102;SDS011;41970;48.774;9.280;2023-02-28T03:46:14;4.78;;;3.45;;
56102;SDS011;41970;48.774;9.280;2023-02-28T03:48:51;5.45;;;3.70;;
56102;SDS011;41970;48.774;9.280;2023-02-28T03:51:23;4.40;;;2.75;;
56102;SDS011;41970;48.774;9.280;2023-02-28T03:53:52;4.63;;;4.22;;
56102;SDS011;41970;48.774;9.280;2023-02-28T03:56:28;5.10;;;3.33;;
56102;SDS011;41970;48.774;9.280;2023-02-28T04:01:30;5.55;;;4.55;;
56102;SDS011;41970;48.774;9.280;2023-02-28T04:04:03;4.18;;;3.38;;
56102;SDS011;41970;48.774;9.280;2023-02-28T04:06:30;5.10;;;4.13;;
56102;SDS011;41970;48.774;9.280;2023-02-28T04:08:58;4.15;;;3.55;;
56102;SDS011;41970;48.774;9.280;2023-02-28T04:13:56;4.28;;;3.38;;
56102;SDS011;41970;48.774;9.280;2023-02-28T04:16:22;4.70;;;3.60;;
56102;SDS011;41970;48.774;9.280;2023-02-28T04:18:47;4.33;;;3.93;;
56102;SDS011;41970;48.774;9.280;2023-02-28T04:21:13;4.20;;;3.50;;
56102;SDS011;41970;48.774;9.280;2023-02-28T04:23:39;6.17;;;2.90;;
56102;SDS011;41970;48.774;9.280;2023-02-28T04:26:05;4.20;;;3.80;;
56102;SDS011;41970;48.774;9.280;2023-02-28T04:28:31;3.88;;;3.47;;
56102;SDS011;41970;48.774;9.280;2023-02-28T04:30:58;4.60;;;4.13;;
56102;SDS011;41970;48.774;9.280;2023-02-28T04:33:29;6.78;;;5.22;;
56102;SDS011;41970;48.774;9.280;2023-02-28T04:36:04;4.80;;;4.30;;
56102;SDS011;41970;48.774;9.280;2023-02-28T04:38:37;5.95;;;3.97;;
56102;SDS011;41970;48.774;9.280;2023-02-28T04:41:04;5.43;;;3.40;;
56102;SDS011;41970;48.774;9.280;2023-02-28T04:43:30;4.40;;;3.85;;
56102;SDS011;41970;48.774;9.280;2023-02-28T04:45:57;4.80;;;3.90;;
56102;SDS011;41970;48.774;9.280;2023-02-28T04:48:29;4.00;;;3.58;;
56102;SDS011;41970;48.774;9.280;2023-02-28T04:51:00;3.22;;;2.92;;
56102;SDS011;41970;48.774;9.280;2023-02-28T04:53:28;4.88;;;4.35;;
56102;SDS011;41970;48.774;9.280;2023-02-28T04:55:55;6.47;;;4.75;;
56102;SDS011;41970;48.774;9.280;2023-02-28T04:58:21;4.00;;;3.70;;
56102;SDS011;41970;48.774;9.280;2023-02-28T05:00:52;4.65;;;4.15;;
56102;SDS011;41970;48.774;9.280;2023-02-28T05:03:19;6.43;;;4.80;;
56102;SDS011;41970;48.774;9.280;2023-02-28T05:05:46;5.95;;;4.40;;
56102;SDS011;41970;48.774;9.280;2023-02-28T05:08:12;4.47;;;3.60;;
56102;SDS011;41970;48.774;9.280;2023-02-28T05:10:38;5.40;;;4.18;;
56102;SDS011;41970;48.774;9.280;2023-02-28T05:13:03;6.03;;;3.70;;
56102;SDS011;41970;48.774;9.280;2023-02-28T05:15:29;7.20;;;4.77;;
56102;SDS011;41970;48.774;9.280;2023-02-28T05:17:55;6.93;;;4.53;;
56102;SDS011;41970;48.774;9.280;2023-02-28T05:20:21;5.63;;;4.63;;
56102;SDS011;41970;48.774;9.280;2023-02-28T05:22:46;4.40;;;4.00;;
56102;SDS011;41970;48.774;9.280;2023-02-28T05:25:17;7.00;;;4.75;;
56102;SDS011;41970;48.774;9.280;2023-02-28T05:27:44;6.65;;;4.05;;
56102;SDS011;41970;48.774;9.280;2023-02-28T05:30:10;5.33;;;4.50;;
56102;SDS011;41970;48.774;9.280;2023-02-28T05:32:37;9.23;;;4.40;;
56102;SDS011;41970;48.774;9.280;2023-02-28T05:35:03;6.85;;;5.32;;
56102;SDS011;41970;48.774;9.280;2023-02-28T05:37:30;5.55;;;4.43;;
56102;SDS011;41970;48.774;9.280;2023-02-28T05:39:56;7.72;;;5.22;;
56102;SDS011;41970;48.774;9.280;2023-02-28T05:42:21;5.80;;;3.50;;
56102;SDS011;41970;48.774;9.280;2023-02-28T05:44:47;5.70;;;5.20;;
56102;SDS011;41970;48.774;9.280;2023-02-28T05:47:13;5.73;;;4.13;;
56102;SDS011;41970;48.774;9.280;2023-02-28T05:49:40;5.47;;;3.95;;
56102;SDS011;41970;48.774;9.280;2023-02-28T05:52:06;6.43;;;3.83;;
56102;SDS011;41970;48.774;9.280;2023-02-28T05:54:32;6.80;;;6.03;;
56102;SDS011;41970;48.774;9.280;2023-02-28T05:56:58;5.67;;;5.07;;
56102;SDS011;41970;48.774;9.280;2023-02-28T05:59:24;7.57;;;4.97;;
56102;SDS011;41970;48.774;9.280;2023-02-28T06:01:50;5.93;;;4.60;;
56102;SDS011;41970;48.774;9.280;2023-02-28T06:04:17;6.53;;;5.15;;
56102;SDS011;41970;48.774;9.280;2023-02-28T06:06:47;6.65;;;4.85;;
56102;SDS011;41970;48.774;9.280;2023-02-28T06:09:14;9.73;;;4.55;;
56102;SDS011;41970;48.774;9.280;2023-02-28T06:11:41;5.80;;;4.13;;
56102;SDS011;41970;48.774;9.280;2023-02-28T06:14:07;7.03;;;4.78;;
56102;SDS011;41970;48.774;9.280;2023-02-28T06:16:37;4.35;;;3.75;;
56102;SDS011;41970;48.774;9.280;2023-02-28T06:19:03;4.60;;;3.30;;
56102;SDS011;41970;48.774;9.280;2023-02-28T06:21:30;6.35;;;5.00;;
56102;SDS011;41970;48.774;9.280;2023-02-28T06:23:56;6.05;;;5.10;;
56102;SDS011;41970;48.774;9.280;2023-02-28T06:26:23;6.40;;;4.80;;
56102;SDS011;41970;48.774;9.280;2023-02-28T06:28:48;7.10;;;4.83;;
56102;SDS011;41970;48.774;9.280;2023-02-28T06:31:15;5.40;;;4.50;;
56102;SDS011;41970;48.774;9.280;2023-02-28T06:33:42;8.00;;;5.85;;
56102;SDS011;41970;48.774;9.280;2023-02-28T06:36:10;6.70;;;5.57;;
56102;SDS011;41970;48.774;9.280;2023-02-28T06:38:37;4.82;;;4.40;;
56102;SDS011;41970;48.774;9.280;2023-02-28T06:41:04;6.55;;;5.32;;
56102;SDS011;41970;48.774;9.280;2023-02-28T06:43:31;7.63;;;4.45;;
56102;SDS011;41970;48.774;9.280;2023-02-28T06:46:00;8.25;;;6.13;;
56102;SDS011;41970;48.774;9.280;2023-02-28T06:48:28;6.80;;;5.63;;
56102;SDS011;41970;48.774;9.280;2023-02-28T06:51:04;7.53;;;6.73;;
56102;SDS011;41970;48.774;9.280;2023-02-28T06:53:31;5.25;;;4.38;;
56102;SDS011;41970;48.774;9.280;2023-02-28T06:55:57;7.82;;;6.80;;
56102;SDS011;41970;48.774;9.280;2023-02-28T06:58:23;8.30;;;5.53;;
56102;SDS011;41970;48.774;9.280;2023-02-28T07:00:50;6.47;;;4.50;;
56102;SDS011;41970;48.774;9.280;2023-02-28T07:03:17;6.82;;;5.57;;
56102;SDS011;41970;48.774;9.280;2023-02-28T07:05:43;7.55;;;5.97;;
56102;SDS011;41970;48.774;9.280;2023-02-28T07:08:10;7.63;;;5.72;;
56102;SDS011;41970;48.774;9.280;2023-02-28T07:10:39;8.60;;;5.63;;
56102;SDS011;41970;48.774;9.280;2023-02-28T07:13:06;6.68;;;5.22;;
56102;SDS011;41970;48.774;9.280;2023-02-28T07:15:34;6.43;;;5.47;;
56102;SDS011;41970;48.774;9.280;2023-02-28T07:18:00;7.32;;;5.60;;
56102;SDS011;41970;48.774;9.280;2023-02-28T07:20:26;6.60;;;5.27;;
56102;SDS011;41970;48.774;9.280;2023-02-28T07:22:52;5.17;;;4.30;;
56102;SDS011;41970;48.774;9.280;2023-02-28T07:25:25;7.90;;;6.35;;
56102;SDS011;41970;48.774;9.280;2023-02-28T07:27:52;4.50;;;4.10;;
56102;SDS011;41970;48.774;9.280;2023-02-28T07:30:19;9.82;;;5.50;;
56102;SDS011;41970;48.774;9.280;2023-02-28T07:32:45;7.30;;;6.57;;
56102;SDS011;41970;48.774;9.280;2023-02-28T07:35:11;8.63;;;5.20;;
56102;SDS011;41970;48.774;9.280;2023-02-28T07:37:36;8.77;;;6.43;;
56102;SDS011;41970;48.774;9.280;2023-02-28T07:40:03;6.27;;;5.53;;
56102;SDS011;41970;48.774;9.280;2023-02-28T07:42:36;9.00;;;6.55;;
56102;SDS011;41970;48.774;9.280;2023-02-28T07:45:03;7.53;;;6.03;;
56102;SDS011;41970;48.774;9.280;2023-02-28T07:47:30;8.30;;;5.88;;
56102;SDS011;41970;48.774;9.280;2023-02-28T07:49:56;8.40;;;6.60;;
56102;SDS011;41970;48.774;9.280;2023-02-28T07:52:22;7.68;;;6.15;;
56102;SDS011;41970;48.774;9.280;2023-02-28T07:54:49;6.82;;;6.13;;
56102;SDS011;41970;48.774;9.280;2023-02-28T07:57:15;7.43;;;5.35;;
56102;SDS011;41970;48.774;9.280;2023-02-28T07:59:41;6.60;;;5.90;;
56102;SDS011;41970;48.774;9.280;2023-02-28T08:02:10;9.40;;;7.18;;
56102;SDS011;41970;48.774;9.280;2023-02-28T08:04:38;7.38;;;6.20;;
56102;SDS011;41970;48.774;9.280;2023-02-28T08:07:04;10.43;;;5.83;;
56102;SDS011;41970;48.774;9.280;2023-02-28T08:09:30;7.20;;;6.20;;
56102;SDS011;41970;48.774;9.280;2023-02-28T08:11:56;6.67;;;6.00;;
56102;SDS011;41970;48.774;9.280;2023-02-28T08:14:22;8.63;;;5.80;;
56102;SDS011;41970;48.774;9.280;2023-02-28T08:16:48;10.27;;;6.55;;
56102;SDS011;41970;48.774;9.280;2023-02-28T08:19:13;9.83;;;7.70;;
56102;SDS011;41970;48.774;9.280;2023-02-28T08:21:39;8.43;;;6.60;;
56102;SDS011;41970;48.774;9.280;2023-02-28T08:24:05;7.93;;;6.30;;
56102;SDS011;41970;48.774;9.280;2023-02-28T08:26:31;10.00;;;7.80;;
56102;SDS011;41970;48.774;9.280;2023-02-28T08:28:57;9.13;;;7.53;;
56102;SDS011;41970;48.774;9.280;2023-02-28T08:31:23;7.30;;;6.57;;
56102;SDS011;41970;48.774;9.280;2023-02-28T08:33:49;9.60;;;7.00;;
56102;SDS011;41970;48.774;9.280;2023-02-28T08:36:17;5.95;;;5.40;;
56102;SDS011;41970;48.774;9.280;2023-02-28T08:38:43;10.05;;;5.90;;
56102;SDS011;41970;48.774;9.280;2023-02-28T08:41:10;8.10;;;5.63;;
56102;SDS011;41970;48.774;9.280;2023-02-28T08:43:37;9.05;;;6.03;;
56102;SDS011;41970;48.774;9.280;2023-02-28T08:46:04;7.70;;;6.30;;
56102;SDS011;41970;48.774;9.280;2023-02-28T08:48:31;8.65;;;6.00;;
56102;SDS011;41970;48.774;9.280;2023-02-28T08:50:58;8.13;;;6.00;;
56102;SDS011;41970;48.774;9.280;2023-02-28T08:53:29;5.90;;;5.05;;
56102;SDS011;41970;48.774;9.280;2023-02-28T08:56:03;7.22;;;6.10;;
56102;SDS011;41970;48.774;9.280;2023-02-28T08:58:34;8.35;;;5.90;;
56102;SDS011;41970;48.774;9.280;2023-02-28T09:01:00;7.35;;;6.03;;
56102;SDS011;41970;48.774;9.280;2023-02-28T09:03:32;9.55;;;7.18;;
56102;SDS011;41970;48.774;9.280;2023-02-28T09:05:58;9.30;;;7.23;;
56102;SDS011;41970;48.774;9.280;2023-02-28T09:08:26;9.35;;;7.68;;
56102;SDS011;41970;48.774;9.280;2023-02-28T09:10:53;6.68;;;5.55;;
56102;SDS011;41970;48.774;9.280;2023-02-28T09:13:19;7.50;;;6.35;;
56102;SDS011;41970;48.774;9.280;2023-02-28T09:15:45;8.40;;;6.32;;
56102;SDS011;41970;48.774;9.280;2023-02-28T09:18:11;7.43;;;6.63;;
56102;SDS011;41970;48.774;9.280;2023-02-28T09:20:38;8.60;;;6.95;;
56102;SDS011;41970;48.774;9.280;2023-02-28T09:23:05;11.95;;;7.32;;
56102;SDS011;41970;48.774;9.280;2023-02-28T09:25:32;8.10;;;6.20;;
56102;SDS011;41970;48.774;9.280;2023-02-28T09:27:58;8.77;;;6.70;;
56102;SDS011;41970;48.774;9.280;2023-02-28T09:30:23;9.10;;;7.13;;
56102;SDS011;41970;48.774;9.280;2023-02-28T09:32:49;8.17;;;6.43;;
56102;SDS011;41970;48.774;9.280;2023-02-28T09:35:19;7.82;;;6.68;;
56102;SDS011;41970;48.774;9.280;2023-02-28T09:37:49;9.70;;;6.93;;
56102;SDS011;41970;48.774;9.280;2023-02-28T09:40:19;6.97;;;6.28;;
56102;SDS011;41970;48.774;9.280;2023-02-28T09:42:48;9.85;;;7.78;;
56102;SDS011;41970;48.774;9.280;2023-02-28T09:45:21;9.35;;;7.40;;
56102;SDS011;41970;48.774;9.280;2023-02-28T09:47:58;9.75;;;7.25;;
56102;SDS011;41970;48.774;9.280;2023-02-28T10:06:29;10.57;;;8.60;;
56102;SDS011;41970;48.774;9.280;2023-02-28T10:09:22;11.90;;;7.32;;
56102;SDS011;41970;48.774;9.280;2023-02-28T10:11:56;7.00;;;5.68;;
56102;SDS011;41970;48.774;9.280;2023-02-28T10:14:28;8.57;;;6.28;;
56102;SDS011;41970;48.774;9.280;2023-02-28T10:16:58;13.10;;;7.32;;
56102;SDS011;41970;48.774;9.280;2023-02-28T10:22:31;10.35;;;6.97;;
56102;SDS011;41970;48.774;9.280;2023-02-28T10:25:05;9.00;;;7.38;;
56102;SDS011;41970;48.774;9.280;2023-02-28T10:27:49;12.30;;;8.20;;
56102;SDS011;41970;48.774;9.280;2023-02-28T10:30:18;8.88;;;7.97;;
56102;SDS011;41970;48.774;9.280;2023-02-28T10:32:49;9.88;;;7.15;;
56102;SDS011;41970;48.774;9.280;2023-02-28T10:35:17;9.07;;;6.50;;
56102;SDS011;41970;48.774;9.280;2023-02-28T10:37:48;12.23;;;8.88;;
56102;SDS011;41970;48.774;9.280;2023-02-28T10:42:55;9.05;;;6.93;;
56102;SDS011;41970;48.774;9.280;2023-02-28T10:45:26;8.13;;;7.32;;
56102;SDS011;41970;48.774;9.280;2023-02-28T10:48:02;9.35;;;8.45;;
56102;SDS011;41970;48.774;9.280;2023-02-28T10:50:43;9.68;;;7.72;;
56102;SDS011;41970;48.774;9.280;2023-02-28T11:01:21;11.75;;;7.85;;
56102;SDS011;41970;48.774;9.280;2023-02-28T11:03:50;10.18;;;8.32;;
56102;SDS011;41970;48.774;9.280;2023-02-28T11:06:23;10.90;;;8.07;;
56102;SDS011;41970;48.774;9.280;2023-02-28T11:08:58;12.20;;;7.80;;
56102;SDS011;41970;48.774;9.280;2023-02-28T11:11:40;11.85;;;8.45;;
56102;SDS011;41970;48.774;9.280;2023-02-28T11:14:28;10.45;;;7.90;;
56102;SDS011;41970;48.774;9.280;2023-02-28T11:16:57;9.40;;;8.48;;
56102;SDS011;41970;48.774;9.280;2023-02-28T11:19:31;9.68;;;7.28;;
56102;SDS011;41970;48.774;9.280;2023-02-28T11:22:04;10.07;;;8.20;;
56102;SDS011;41970;48.774;9.280;2023-02-28T11:24:33;12.35;;;9.15;;
56102;SDS011;41970;48.774;9.280;2023-02-28T11:27:02;12.60;;;7.30;;
56102;SDS011;41970;48.774;9.280;2023-02-28T11:29:30;11.48;;;8.25;;
56102;SDS011;41970;48.774;9.280;2023-02-28T11:34:35;9.40;;;7.50;;
56102;SDS011;41970;48.774;9.280;2023-02-28T11:37:02;9.45;;;6.97;;
56102;SDS011;41970;48.774;9.280;2023-02-28T11:39:32;11.27;;;7.75;;
56102;SDS011;41970;48.774;9.280;2023-02-28T11:44:43;9.15;;;8.15;;
56102;SDS011;41970;48.774;9.280;2023-02-28T11:48:01;13.18;;;8.35;;
56102;SDS011;41970;48.774;9.280;2023-02-28T12:05:03;11.55;;;8.73;;
56102;SDS011;41970;48.774;9.280;2023-02-28T12:10:57;11.10;;;8.50;;
56102;SDS011;41970;48.774;9.280;2023-02-28T12:18:51;10.73;;;7.88;;
56102;SDS011;41970;48.774;9.280;2023-02-28T12:26:56;9.75;;;7.93;;
56102;SDS011;41970;48.774;9.280;2023-02-28T12:29:28;8.82;;;7.93;;
56102;SDS011;41970;48.774;9.280;2023-02-28T12:34:57;10.07;;;8.07;;
56102;SDS011;41970;48.774;9.280;2023-02-28T12:37:48;10.40;;;8.98;;
56102;SDS011;41970;48.774;9.280;2023-02-28T12:40:20;9.63;;;7.75;;
56102;SDS011;41970;48.774;9.280;2023-02-28T12:42:52;9.05;;;8.00;;
56102;SDS011;41970;48.774;9.280;2023-02-28T12:45:23;9.55;;;8.35;;
56102;SDS011;41970;48.774;9.280;2023-02-28T12:48:13;9.23;;;7.65;;
56102;SDS011;41970;48.774;9.280;2023-02-28T12:50:44;10.32;;;9.30;;
56102;SDS011;41970;48.774;9.280;2023-02-28T12:53:17;10.60;;;8.32;;
56102;SDS011;41970;48.774;9.280;2023-02-28T12:59:03;12.93;;;8.70;;
56102;SDS011;41970;48.774;9.280;2023-02-28T13:02:00;9.98;;;8.57;;
56102;SDS011;41970;48.774;9.280;2023-02-28T13:04:47;9.10;;;8.18;;
56102;SDS011;41970;48.774;9.280;2023-02-28T13:10:01;9.23;;;7.65;;
56102;SDS011;41970;48.774;9.280;2023-02-28T13:12:31;12.60;;;7.65;;
56102;SDS011;41970;48.774;9.280;2023-02-28T13:17:37;10.20;;;8.15;;
56102;SDS011;41970;48.774;9.280;2023-02-28T13:20:14;11.32;;;8.68;;
56102;SDS011;41970;48.774;9.280;2023-02-28T13:22:43;10.18;;;7.80;;
56102;SDS011;41970;48.774;9.280;2023-02-28T13:27:58;9.63;;;7.93;;
56102;SDS011;41970;48.774;9.280;2023-02-28T13:33:25;8.02;;;7.10;;
56102;SDS011;41970;48.774;9.280;2023-02-28T13:38:34;10.70;;;8.38;;
56102;SDS011;41970;48.774;9.280;2023-02-28T13:44:08;8.95;;;6.55;;
56102;SDS011;41970;48.774;9.280;2023-02-28T13:49:34;9.25;;;7.38;;
56102;SDS011;41970;48.774;9.280;2023-02-28T14:11:30;7.90;;;7.10;;
56102;SDS011;41970;48.774;9.280;2023-02-28T14:13:59;9.30;;;7.77;;
56102;SDS011;41970;48.774;9.280;2023-02-28T14:16:27;10.55;;;8.32;;
56102;SDS011;41970;48.774;9.280;2023-02-28T14:19:02;8.35;;;7.43;;
56102;SDS011;41970;48.774;9.280;2023-02-28T14:21:31;10.00;;;7.72;;
56102;SDS011;41970;48.774;9.280;2023-02-28T14:35:05;8.30;;;7.50;;
56102;SDS011;41970;48.774;9.280;2023-02-28T14:37:55;8.90;;;7.77;;
56102;SDS011;41970;48.774;9.280;2023-02-28T14:40:27;10.50;;;7.40;;
56102;SDS011;41970;48.774;9.280;2023-02-28T14:42:58;7.78;;;6.60;;
56102;SDS011;41970;48.774;9.280;2023-02-28T14:45:26;7.10;;;6.40;;
56102;SDS011;41970;48.774;9.280;2023-02-28T14:47:57;8.33;;;6.67;;
56102;SDS011;41970;48.774;9.280;2023-02-28T14:50:27;8.43;;;7.20;;
56102;SDS011;41970;48.774;9.280;2023-02-28T14:52:56;7.63;;;6.80;;
56102;SDS011;41970;48.774;9.280;2023-02-28T14:55:26;10.82;;;8.68;;
56102;SDS011;41970;48.774;9.280;2023-02-28T14:57:57;9.05;;;8.15;;
56102;SDS011;41970;48.774;9.280;2023-02-28T15:00:31;9.27;;;7.57;;
56102;SDS011;41970;48.774;9.280;2023-02-28T15:04:05;10.73;;;7.30;;
56102;SDS011;41970;48.774;9.280;2023-02-28T15:06:04;10.02;;;8.35;;
56102;SDS011;41970;48.774;9.280;2023-02-28T15:08:42;9.45;;;8.00;;
56102;SDS011;41970;48.774;9.280;2023-02-28T15:13:51;8.90;;;7.97;;
56102;SDS011;41970;48.774;9.280;2023-02-28T15:16:21;8.93;;;7.55;;
56102;SDS011;41970;48.774;9.280;2023-02-28T15:18:54;8.43;;;7.70;;
56102;SDS011;41970;48.774;9.280;2023-02-28T15:21:26;8.55;;;7.65;;
56102;SDS011;41970;48.774;9.280;2023-02-28T15:24:06;8.32;;;7.53;;
56102;SDS011;41970;48.774;9.280;2023-02-28T15:26:45;8.43;;;7.63;;
56102;SDS011;41970;48.774;9.280;2023-02-28T15:29:15;11.10;;;7.82;;
56102;SDS011;41970;48.774;9.280;2023-02-28T15:31:55;8.98;;;7.15;;
56102;SDS011;41970;48.774;9.280;2023-02-28T15:34:41;9.25;;;7.57;;
56102;SDS011;41970;48.774;9.280;2023-02-28T15:39:55;9.77;;;7.93;;
56102;SDS011;41970;48.774;9.280;2023-02-28T15:42:27;8.38;;;7.45;;
56102;SDS011;41970;48.774;9.280;2023-02-28T15:44:54;9.15;;;7.80;;
56102;SDS011;41970;48.774;9.280;2023-02-28T15:47:21;8.07;;;7.23;;
56102;SDS011;41970;48.774;9.280;2023-02-28T15:49:52;8.68;;;7.72;;
56102;SDS011;41970;48.774;9.280;2023-02-28T15:52:24;8.45;;;7.53;;
56102;SDS011;41970;48.774;9.280;2023-02-28T15:55:10;9.30;;;7.10;;
56102;SDS011;41970;48.774;9.280;2023-02-28T15:57:53;9.52;;;7.55;;
56102;SDS011;41970;48.774;9.280;2023-02-28T16:00:25;8.45;;;7.53;;
56102;SDS011;41970;48.774;9.280;2023-02-28T16:02:53;8.25;;;7.18;;
56102;SDS011;41970;48.774;9.280;2023-02-28T16:05:27;11.45;;;8.13;;
56102;SDS011;41970;48.774;9.280;2023-02-28T16:08:00;8.63;;;7.72;;
56102;SDS011;41970;48.774;9.280;2023-02-28T16:10:36;9.43;;;8.00;;
56102;SDS011;41970;48.774;9.280;2023-02-28T16:13:02;10.10;;;7.73;;
56102;SDS011;41970;48.774;9.280;2023-02-28T16:15:28;9.77;;;7.47;;
56102;SDS011;41970;48.774;9.280;2023-02-28T16:18:00;11.73;;;7.20;;
56102;SDS011;41970;48.774;9.280;2023-02-28T16:20:27;9.07;;;7.73;;
56102;SDS011;41970;48.774;9.280;2023-02-28T16:22:54;8.93;;;8.02;;
56102;SDS011;41970;48.774;9.280;2023-02-28T16:25:22;7.20;;;6.50;;
56102;SDS011;41970;48.774;9.280;2023-02-28T16:27:54;8.10;;;6.90;;
56102;SDS011;41970;48.774;9.280;2023-02-28T16:30:25;10.73;;;6.70;;
56102;SDS011;41970;48.774;9.280;2023-02-28T16:32:54;12.98;;;8.82;;
56102;SDS011;41970;48.774;9.280;2023-02-28T16:35:20;10.45;;;9.18;;
56102;SDS011;41970;48.774;9.280;2023-02-28T16:37:47;9.15;;;7.80;;
56102;SDS011;41970;48.774;9.280;2023-02-28T16:40:14;9.07;;;7.03;;
56102;SDS011;41970;48.774;9.280;2023-02-28T16:42:43;10.02;;;7.32;;
56102;SDS011;41970;48.774;9.280;2023-02-28T16:45:14;10.13;;;7.70;;
56102;SDS011;41970;48.774;9.280;2023-02-28T16:47:46;7.70;;;6.90;;
56102;SDS011;41970;48.774;9.280;2023-02-28T16:50:17;8.05;;;6.50;;
56102;SDS011;41970;48.774;9.280;2023-02-28T16:52:47;9.07;;;7.60;;
56102;SDS011;41970;48.774;9.280;2023-02-28T16:55:14;10.85;;;7.90;;
56102;SDS011;41970;48.774;9.280;2023-02-28T16:57:40;8.32;;;6.65;;
56102;SDS011;41970;48.774;9.280;2023-02-28T17:00:08;6.97;;;6.27;;
56102;SDS011;41970;48.774;9.280;2023-02-28T17:02:38;11.57;;;8.75;;
56102;SDS011;41970;48.774;9.280;2023-02-28T17:05:05;8.73;;;7.35;;
56102;SDS011;41970;48.774;9.280;2023-02-28T17:07:31;9.50;;;7.82;;
56102;SDS011;41970;48.774;9.280;2023-02-28T17:09:57;9.63;;;8.67;;
56102;SDS011;41970;48.774;9.280;2023-02-28T17:12:24;11.35;;;8.15;;
56102;SDS011;41970;48.774;9.280;2023-02-28T17:14:50;8.73;;;7.43;;
56102;SDS011;41970;48.774;9.280;2023-02-28T17:17:17;10.90;;;8.50;;
56102;SDS011;41970;48.774;9.280;2023-02-28T17:19:45;10.35;;;7.82;;
56102;SDS011;41970;48.774;9.280;2023-02-28T17:22:11;8.93;;;6.93;;
56102;SDS011;41970;48.774;9.280;2023-02-28T17:24:37;14.57;;;8.00;;
56102;SDS011;41970;48.774;9.280;2023-02-28T17:27:03;9.57;;;7.27;;
56102;SDS011;41970;48.774;9.280;2023-02-28T17:29:29;8.75;;;6.65;;
56102;SDS011;41970;48.774;9.280;2023-02-28T17:31:55;10.00;;;7.60;;
56102;SDS011;41970;48.774;9.280;2023-02-28T17:34:21;9.30;;;8.30;;
56102;SDS011;41970;48.774;9.280;2023-02-28T17:36:47;8.63;;;7.22;;
56102;SDS011;41970;48.774;9.280;2023-02-28T17:39:16;8.73;;;7.82;;
56102;SDS011;41970;48.774;9.280;2023-02-28T17:41:53;10.70;;;7.70;;
56102;SDS011;41970;48.774;9.280;2023-02-28T17:44:21;10.25;;;8.57;;